ADDS METAR Data INFO
IDs: Format: Raw Decoded Include TAF

Data at: 2214 UTC 24 Jun 2018

KJMS 242156Z AUTO 10009KT 10SM FEW019 FEW100 22/19 A2990 RMK AO2 SLP121 T02220189
KJMS 242056Z AUTO 08007KT 10SM BKN090 OVC110 21/18 A2990 RMK AO2 LTG DSNT N AND NW RAB1958E35 SLP123 P0001 60010 T02060183 56008
KJMS 241956Z AUTO 11009KT 10SM BKN100 OVC110 20/18 A2991 RMK AO2 LTG DSNT NE RAE42 SLP126 P0000 T02000183
KJMS 241856Z AUTO 07004KT 6SM -RA BR OVC100 19/17 A2991 RMK AO2 LTG DSNT E-S SLP126 P0009 T01890172
KJMS 241756Z AUTO 08009KT 9SM -RA BKN085 OVC100 17/16 A2993 RMK AO2 PK WND 12037/1710 WSHFT 1708 LTG DSNT S AND W RAB16 TSB27E42 SLP132 P0007 60007 T01720156 10244 20167 53017
KJMS 241748Z AUTO 08008KT 10SM VCTS -RA FEW041 BKN085 OVC100 17/15 A2993 RMK AO2 PK WND 12037/1710 WSHFT 1708 LTG DSNT E AND S RAB16 TSB27E42 P0007 T01720150
KJMS 241741Z AUTO 11010KT 7SM -TSRA FEW041 BKN075 OVC100 17/15 A2993 RMK AO2 PK WND 12037/1710 WSHFT 1708 LTG DSNT E AND S RAB16 TSB27 P0007 T01720150
KJMS 241733Z AUTO 10011KT 2SM -TSRA BR FEW032 BKN065 OVC090 17/16 A2993 RMK AO2 PK WND 12037/1710 WSHFT 1708 LTG DSNT E-S RAB16 TSB27 P0006 T01720161
KJMS 241724Z AUTO 12014G31KT 2 1/2SM VCTS +RA BR SCT041 BKN065 OVC100 18/16 A2992 RMK AO2 PK WND 12037/1710 WSHFT 1708 LTG DSNT E AND S RAB16 P0003 T01780156
KJMS 241656Z AUTO 09011KT 10SM VCTS SCT036 SCT048 BKN060 23/16 A2989 RMK AO2 LTG DSNT E-SW SLP115 T02330156
KJMS 241654Z AUTO 08011KT 10SM VCTS SCT036 BKN060 BKN100 23/16 A2989 RMK AO2 LTG DSNT E-SW
KJMS 241556Z AUTO 07012G20KT 10SM CLR 24/17 A2987 RMK AO2 LTG DSNT SE SLP110 T02390172
KJMS 241456Z AUTO 05010KT 10SM CLR 23/18 A2987 RMK AO2 SLP110 T02330178 53012
KJMS 241356Z AUTO 07009KT 10SM CLR 21/17 A2987 RMK AO2 PRESRR SLP110 T02110167
KJMS 241256Z AUTO 05009KT 10SM CLR 19/16 A2983 RMK AO2 SLP098 T01940156
KJMS 241156Z AUTO 06006KT 10SM CLR 17/15 A2984 RMK AO2 SLP101 70021 T01720150 10194 20167 51019
KJMS 241056Z AUTO 04009KT 10SM FEW075 17/15 A2982 RMK AO2 SLP090 T01670150
KJMS 240956Z AUTO 06006KT 10SM FEW075 18/16 A2981 RMK AO2 SLP087 T01780161
KJMS 240856Z AUTO 07005KT 10SM CLR 17/16 A2978 RMK AO2 SLP077 T01720161 55000
KJMS 240756Z AUTO 06004KT 10SM CLR 17/16 A2977 RMK AO2 SLP076 T01670161
KJMS 240656Z AUTO 06005KT 10SM FEW110 18/17 A2978 RMK AO2 SLP078 T01830167
KJMS 240556Z AUTO 04008KT 10SM FEW043 19/16 A2978 RMK AO2 SLP078 60001 T01940156 10211 20194 402720167 50009
KJMS 240535Z AUTO 05009KT 10SM VCTS SCT043 SCT080 19/17 A2978 RMK AO2 LTG DSNT N AND NW T01940172
KJMS 240456Z AUTO 04005KT 10SM SCT055 BKN075 BKN110 19/17 A2978 RMK AO2 LTG DSNT N AND NE SLP079 T01940172
KJMS 240356Z AUTO 36004KT 10SM FEW055 BKN120 20/18 A2976 RMK AO2 SLP071 T02000183
KJMS 240256Z AUTO 00000KT 10SM FEW055 FEW120 21/18 A2975 RMK AO2 SLP068 60001 T02060183 53013
KJMS 240156Z AUTO 00000KT 10SM CLR 21/18 A2972 RMK AO2 LTG DSNT NW SLP058 T02110178
KJMS 240056Z AUTO 19007KT 10SM BKN110 21/17 A2971 RMK AO2 RAE30 TSE17 SLP057 P0001 T02060172
KJMS 240023Z AUTO 00000KT 10SM -RA FEW040 BKN075 OVC085 20/17 A2970 RMK AO2 LTG DSNT NE TSE17 P0001 T02000167
KJMS 240009Z AUTO 23003KT 10SM -TSRA FEW040 BKN050 OVC085 19/16 A2970 RMK AO2 LTG DSNT NE P0001 T01940161
KJMS 240002Z AUTO 24008KT 2SM -TSRA SCT042 BKN050 OVC085 19/16 A2971 RMK AO2 VIS 3/4V5 P0001 T01940156
KJMS 232356Z AUTO 24008G40KT 3/4SM +TSRA SCT040 BKN050 OVC120 19/16 A2971 RMK AO2 PK WND 17040/2348 RAB48 TSB49 SLP057 P0020 60020 T01890161 10272 20189 53004
KJMS 232350Z AUTO 19027G40KT 2SM -TSRA BKN050 OVC120 22/16 A2971 RMK AO2 PK WND 17040/2348 RAB48 TSB49 P0009
KJMS 232331Z AUTO 15007KT 10SM VCTS FEW050 FEW070 SCT120 26/14 A2969 RMK AO2 LTG DSNT SE T02610144
KJMS 232256Z AUTO 16007KT 10SM FEW050 26/14 A2970 RMK AO2 SLP049 T02610144
KJMS 232156Z AUTO 16009KT 10SM CLR 25/14 A2970 RMK AO2 SLP049 T02500139
KJMS 232056Z AUTO 15010G20KT 10SM CLR 27/13 A2970 RMK AO2 SLP050 T02670133 57009
KJMS 231956Z AUTO 16012G16KT 10SM CLR 27/14 A2970 RMK AO2 SLP052 T02670144
KJMS 231856Z AUTO 20010KT 10SM CLR 25/16 A2972 RMK AO2 SLP058 T02500156
KJMS 231756Z AUTO 18013KT 10SM CLR 25/14 A2973 RMK AO2 SLP060 T02500144 10261 20189 51006
KJMS 231656Z AUTO 20009KT 10SM CLR 25/16 A2972 RMK AO2 SLP058 T02500156
KJMS 231556Z AUTO 18011G16KT 10SM CLR 25/16 A2972 RMK AO2 SLP054 T02500161
KJMS 231456Z AUTO 16006KT 10SM CLR 24/17 A2971 RMK AO2 SLP053 T02390167 53001
KJMS 231356Z AUTO 21005KT 10SM CLR 22/17 A2971 RMK AO2 SLP052 T02220167
KJMS 231256Z AUTO 16003KT 10SM CLR 21/17 A2971 RMK AO2 SLP052 T02060167
KJMS 231156Z AUTO 18004KT 10SM SCT085 18/16 A2971 RMK AO2 SLP051 T01830156 10194 20167 57001
KJMS 231056Z AUTO 19005KT 10SM FEW085 17/15 A2971 RMK AO2 SLP051 T01720150